createdAt,value
2019-04-25T00:02:11.584Z,99680.78
2019-04-25T00:07:13.591Z,99678.06
2019-04-25T00:12:16.079Z,99687.95
2019-04-25T00:17:21.435Z,99688.06
2019-04-25T00:22:33.337Z,99696.59
2019-04-25T00:27:35.474Z,99709.28
2019-04-25T00:32:37.613Z,99730.12
2019-04-25T00:37:39.661Z,99733.20
2019-04-25T00:42:43.607Z,99736.63
2019-04-25T00:47:47.767Z,99746.55
2019-04-25T00:52:51.933Z,99755.63
2019-04-25T00:57:58.702Z,99767.34
2019-04-25T01:03:03.330Z,99775.84
2019-04-25T01:08:05.584Z,99774.63
2019-04-25T01:13:07.667Z,99761.37
2019-04-25T01:18:09.866Z,99758.14
2019-04-25T01:23:13.673Z,99751.75
2019-04-25T01:28:15.948Z,99751.36
2019-04-25T01:33:19.654Z,99775.82
2019-04-25T01:38:37.924Z,99779.60
2019-04-25T01:43:48.417Z,99784.47
2019-04-25T01:48:53.802Z,99781.53
2019-04-25T01:53:56.799Z,99765.37
2019-04-25T01:58:59.469Z,99779.06
2019-04-25T02:04:03.526Z,99777.39
2019-04-25T02:09:08.944Z,99788.59
2019-04-25T02:14:13.618Z,99791.69
2019-04-25T02:19:15.930Z,99811.19
2019-04-25T02:24:18.158Z,99833.28
2019-04-25T02:29:20.235Z,99832.66
2019-04-25T02:34:24.820Z,99834.24
2019-04-25T02:39:27.222Z,99832.13
2019-04-25T02:44:31.251Z,99837.19
2019-04-25T02:49:54.458Z,99844.44
2019-04-25T02:54:58.423Z,99848.74
2019-04-25T03:00:02.676Z,99855.92
2019-04-25T03:05:09.792Z,99861.97
2019-04-25T03:10:17.955Z,99854.80
2019-04-25T03:15:20.134Z,99854.06
2019-04-25T03:20:47.734Z,99849.56
2019-04-25T03:25:50.964Z,99838.20
2019-04-25T03:30:56.779Z,99857.93
2019-04-25T03:35:57.206Z,99873.73
2019-04-25T03:40:59.187Z,99875.45
2019-04-25T03:46:03.105Z,99866.09
2019-04-25T03:51:06.658Z,99870.17
2019-04-25T03:56:09.039Z,99892.73
2019-04-25T04:01:11.294Z,99901.00
2019-04-25T04:06:14.591Z,99911.76
2019-04-25T04:11:17.323Z,99919.20
2019-04-25T04:16:23.232Z,99928.83
2019-04-25T04:21:46.400Z,99936.38
2019-04-25T04:27:09.528Z,99937.06
2019-04-25T04:32:14.382Z,99952.00
2019-04-25T04:37:17.563Z,99954.81
2019-04-25T04:42:19.675Z,99962.72
2019-04-25T04:47:23.519Z,99965.50
2019-04-25T04:52:25.918Z,99966.45
2019-04-25T04:57:33.436Z,99976.17
2019-04-25T05:03:00.681Z,99982.44
2019-04-25T05:08:12.614Z,99985.44
2019-04-25T05:13:16.695Z,99984.05
2019-04-25T05:18:33.021Z,99983.32
2019-04-25T05:23:24.814Z,99985.53
2019-04-25T05:28:27.218Z,99988.45
2019-04-25T05:33:29.339Z,100010.88
2019-04-25T05:38:31.355Z,100013.25
2019-04-25T05:43:33.568Z,100010.65
2019-04-25T05:48:35.688Z,100016.20
2019-04-25T05:53:37.950Z,100032.05
2019-04-25T05:58:39.942Z,100044.86
2019-04-25T06:03:41.995Z,100044.36
2019-04-25T06:08:51.227Z,100038.89
2019-04-25T06:14:00.310Z,100037.87
2019-04-25T06:19:18.551Z,100040.32
2019-04-25T06:24:45.772Z,100045.72
2019-04-25T06:29:58.363Z,100051.05
2019-04-25T06:34:54.590Z,100057.00
2019-04-25T06:39:56.779Z,100060.66
2019-04-25T06:45:28.045Z,100072.75
2019-04-25T06:50:30.340Z,100079.86
2019-04-25T06:55:34.336Z,100077.22
2019-04-25T07:00:41.141Z,100086.45
2019-04-25T07:05:41.080Z,100093.38
2019-04-25T07:10:44.655Z,100096.23
2019-04-25T07:15:47.130Z,100094.66
2019-04-25T07:20:49.227Z,100094.76
2019-04-25T07:26:00.870Z,100099.13
2019-04-25T07:31:23.364Z,100106.92
2019-04-25T07:36:26.656Z,100105.76
2019-04-25T07:41:31.467Z,100107.80
2019-04-25T07:46:37.376Z,100110.34
2019-04-25T07:51:37.997Z,100117.52
2019-04-25T07:56:40.071Z,100113.09
2019-04-25T08:01:43.607Z,100118.70
2019-04-25T08:06:46.102Z,100111.38
2019-04-25T08:11:48.216Z,100113.66
2019-04-25T08:16:53.836Z,100108.11
2019-04-25T08:21:56.880Z,100104.21
2019-04-25T08:27:00.117Z,100108.21
2019-04-25T08:32:02.350Z,100103.12
2019-04-25T08:37:17.039Z,100095.77
2019-04-25T08:42:08.974Z,100100.83
2019-04-25T08:47:11.021Z,100091.97
2019-04-25T08:52:13.340Z,100105.94
2019-04-25T08:57:25.610Z,100098.04
2019-04-25T09:02:40.635Z,100103.17
2019-04-25T09:07:44.487Z,100107.01
2019-04-25T09:12:47.127Z,100095.15
2019-04-25T09:17:49.209Z,100098.91
2019-04-25T09:22:51.396Z,100105.20
2019-04-25T09:27:54.393Z,100093.77
2019-04-25T09:32:56.729Z,100103.03
2019-04-25T09:38:00.300Z,100106.34
2019-04-25T09:43:03.622Z,100098.05
2019-04-25T09:48:13.490Z,100093.86
2019-04-25T09:53:23.177Z,100093.43
2019-04-25T09:58:31.434Z,100091.44
2019-04-25T10:03:33.673Z,100079.73
2019-04-25T10:08:36.991Z,100076.34
2019-04-25T10:13:40.039Z,100075.04
2019-04-25T10:18:43.733Z,100070.78
2019-04-25T10:23:46.796Z,100071.68
2019-04-25T10:28:49.592Z,100064.91
2019-04-25T10:33:53.446Z,100062.53
2019-04-25T10:39:07.243Z,100062.98
2019-04-25T10:44:01.063Z,100057.27
2019-04-25T10:49:04.382Z,100057.37
2019-04-25T10:54:06.760Z,100053.87
2019-04-25T10:59:08.810Z,100043.20
2019-04-25T11:04:20.674Z,100037.19
2019-04-25T11:09:24.416Z,100031.19
2019-04-25T11:14:29.622Z,100029.06
2019-04-25T11:19:31.854Z,100021.61
2019-04-25T11:24:34.377Z,100017.30
2019-04-25T11:29:36.565Z,100009.33
2019-04-25T11:34:38.755Z,100007.94
2019-04-25T11:40:09.254Z,99998.42
2019-04-25T11:45:11.843Z,99996.20
2019-04-25T11:50:14.202Z,99988.78
2019-04-25T11:55:17.208Z,99983.65
2019-04-25T12:00:24.464Z,99984.73
2019-04-25T12:05:26.950Z,99975.78
2019-04-25T12:10:29.509Z,99976.39
2019-04-25T12:15:33.259Z,99967.22
2019-04-25T12:20:36.581Z,99968.34
2019-04-25T12:25:38.681Z,99954.83
2019-04-25T12:30:40.804Z,99937.58
2019-04-25T12:35:43.674Z,99936.06
2019-04-25T12:40:46.961Z,99926.49
2019-04-25T12:46:13.175Z,99921.70
2019-04-25T12:51:15.200Z,99912.96
2019-04-25T12:56:17.300Z,99908.95
2019-04-25T13:01:19.374Z,99911.94
2019-04-25T13:06:21.365Z,99900.92
2019-04-25T13:11:24.152Z,99898.30
2019-04-25T13:16:26.337Z,99889.86
2019-04-25T13:21:28.442Z,99879.48
2019-04-25T13:26:34.987Z,99871.69
2019-04-25T13:31:56.573Z,99867.92
2019-04-25T13:36:59.491Z,99867.89
2019-04-25T13:42:02.436Z,99853.66
2019-04-25T13:47:05.980Z,99852.06
2019-04-25T13:52:08.767Z,99841.33
2019-04-25T13:57:10.852Z,99838.55
2019-04-25T14:02:14.095Z,99832.04
2019-04-25T14:07:16.436Z,99823.00
2019-04-25T14:12:18.614Z,99820.05
2019-04-25T14:17:33.785Z,99813.27
2019-04-25T14:22:36.027Z,99810.27
2019-04-25T14:27:38.290Z,99795.20
2019-04-25T14:32:40.288Z,99799.80
2019-04-25T14:37:43.840Z,99792.67
2019-04-25T14:42:46.042Z,99784.74
2019-04-25T14:47:48.047Z,99770.48
2019-04-25T14:52:50.146Z,99773.46
2019-04-25T14:57:52.944Z,99762.80
2019-04-25T15:02:55.330Z,99759.48
2019-04-25T15:07:57.412Z,99754.83
2019-04-25T15:12:59.807Z,99748.25
2019-04-25T15:18:03.032Z,99750.97
2019-04-25T15:23:05.309Z,99749.87
2019-04-25T15:28:07.448Z,99749.59
2019-04-25T15:33:11.353Z,99747.93
2019-04-25T15:38:21.918Z,99746.73
2019-04-25T15:43:31.409Z,99743.11
2019-04-25T15:48:33.616Z,99730.50
2019-04-25T15:53:35.852Z,99736.77
2019-04-25T15:58:37.918Z,99740.94
2019-04-25T16:03:41.022Z,99736.87
2019-04-25T16:08:49.131Z,99733.47
2019-04-25T16:13:52.242Z,99733.15
2019-04-25T16:18:54.394Z,99732.28
2019-04-25T16:23:56.487Z,99724.75
2019-04-25T16:28:59.580Z,99717.53
2019-04-25T16:34:01.842Z,99719.98
2019-04-25T16:39:06.167Z,99719.36
2019-04-25T16:44:12.901Z,99714.00
2019-04-25T16:49:14.977Z,99710.14
2019-04-25T16:54:17.158Z,99710.16
2019-04-25T16:59:19.258Z,99705.94
2019-04-25T17:04:21.371Z,99706.81
2019-04-25T17:09:23.474Z,99702.43
2019-04-25T17:14:37.463Z,99698.73
2019-04-25T17:19:48.372Z,99698.13
2019-04-25T17:24:50.397Z,99699.22
2019-04-25T17:29:53.847Z,99697.36
2019-04-25T17:35:11.128Z,99694.86
2019-04-25T17:40:17.139Z,99689.41
2019-04-25T17:45:23.911Z,99685.64
2019-04-25T17:50:26.104Z,99684.45
2019-04-25T17:55:28.293Z,99684.81
2019-04-25T18:00:38.356Z,99684.55
2019-04-25T18:05:41.409Z,99680.55
2019-04-25T18:10:44.571Z,99684.84
2019-04-25T18:16:06.392Z,99689.59
2019-04-25T18:21:08.375Z,99674.92
2019-04-25T18:26:25.332Z,99671.03
2019-04-25T18:31:27.539Z,99673.71
2019-04-25T18:36:39.009Z,99679.05
2019-04-25T18:41:49.420Z,99685.39
2019-04-25T18:46:51.553Z,99684.29
2019-04-25T18:51:58.104Z,99689.69
2019-04-25T18:57:31.042Z,99687.82
2019-04-25T19:02:42.662Z,99689.81
2019-04-25T19:07:45.358Z,99688.94
2019-04-25T19:12:47.544Z,99686.69
2019-04-25T19:17:49.735Z,99689.48
2019-04-25T19:22:52.623Z,99688.87
2019-04-25T19:27:54.974Z,99675.63
2019-04-25T19:32:57.065Z,99671.45
2019-04-25T19:38:01.129Z,99669.50
2019-04-25T19:43:09.114Z,99662.42
2019-04-25T19:48:11.429Z,99659.88
2019-04-25T19:53:14.695Z,99667.34
2019-04-25T19:58:16.936Z,99668.82
2019-04-25T20:03:53.559Z,99671.00
2019-04-25T20:09:02.774Z,99670.94
2019-04-25T20:14:06.846Z,99673.77
2019-04-25T20:19:09.519Z,99681.21
2019-04-25T20:24:11.729Z,99670.48
2019-04-25T20:29:13.896Z,99663.83
2019-04-25T20:34:16.052Z,99653.17
2019-04-25T20:39:18.038Z,99649.52
2019-04-25T20:44:20.125Z,99645.80
2019-04-25T20:49:22.116Z,99644.08
2019-04-25T20:54:24.116Z,99640.31
2019-04-25T20:59:26.120Z,99641.17
2019-04-25T21:04:43.697Z,99638.57
2019-04-25T21:09:46.000Z,99637.17
2019-04-25T21:15:07.443Z,99632.03
2019-04-25T21:20:10.672Z,99631.73
2019-04-25T21:25:12.902Z,99628.73
2019-04-25T21:30:15.159Z,99629.92
2019-04-25T21:35:17.414Z,99623.19
2019-04-25T21:40:32.099Z,99623.23
2019-04-25T21:45:34.643Z,99622.89
2019-04-25T21:50:37.043Z,99619.26
2019-04-25T21:55:39.532Z,99616.14
2019-04-25T22:01:02.456Z,99610.20
2019-04-25T22:06:06.694Z,99615.84
2019-04-25T22:11:08.904Z,99602.48
2019-04-25T22:16:11.196Z,99599.59
2019-04-25T22:21:13.487Z,99597.44
2019-04-25T22:26:16.056Z,99598.36
2019-04-25T22:31:23.960Z,99595.25
2019-04-25T22:36:26.088Z,99584.63
2019-04-25T22:41:28.123Z,99581.51
2019-04-25T22:46:30.583Z,99572.92
2019-04-25T22:51:32.976Z,99572.23
2019-04-25T22:56:35.246Z,99558.05
2019-04-25T23:01:54.541Z,99558.22
2019-04-25T23:06:56.855Z,99558.84
2019-04-25T23:11:58.961Z,99554.52
2019-04-25T23:17:03.634Z,99555.00
2019-04-25T23:22:05.952Z,99550.47
2019-04-25T23:27:16.013Z,99551.66
2019-04-25T23:32:17.966Z,99546.61
2019-04-25T23:37:20.040Z,99542.18
2019-04-25T23:42:22.432Z,99543.99
2019-04-25T23:47:25.109Z,99536.77
2019-04-25T23:52:27.220Z,99528.22
2019-04-25T23:57:29.349Z,99522.53
